METAR rapporter

 

EKAH - Tirstrup (civ/Mi, Denmark
Afstand fra stationen: SSV 25km
Opdateret: 25/02/2020 12:50
Let regn, Regnbyger, Mest skyet
Let regn, Regnbyger, Mest skyet
 Vind fra S
Vind: S 19 km/h, Vindstød: 43 km/h
Temperatur: 5°C
Kuldeindeks: 1°C
Dugpunkt: 4°C
Fugtighed: 93%
Barometer: 980 hPa
Oversigt: Let regn, Regnbyger
Skydække: Mest skyet
Sigtbarhed: 10 km
Skyhøjde: Mest skyet 457 m
2020/02/25 11:50 EKAH 251150Z AUTO 19010G23KT 140V230 9999NDV -SHRA BKN015/// 05/04 Q0980
EKYT - Alborg, Denmark
Afstand fra stationen: NV 91km
Opdateret: 25/02/2020 13:12
Let regn, Mest skyet
Let regn, Mest skyet
 Vind fra ØSØ
Vind: ØSØ 17 km/h
Temperatur: 5°C
Kuldeindeks: 2°C
Dugpunkt: 3°C
Fugtighed: 87%
Barometer: 977 hPa
Oversigt: Let regn
Skydække: Mest skyet
Sigtbarhed: 10 km
Skyhøjde: Få skyer 366 m
Delvist skyet 488 m
Mest skyet 579 m
Mest skyet 884 m
2020/02/25 12:12 EKYT 251212Z AUTO 12009KT 9999 -RA FEW012/// SCT016/// BKN019/// BKN029/// 05/03 Q0977
EKKA - Karup (dan-Afb), Denmark
Afstand fra stationen: V 107km
Opdateret: 25/02/2020 12:50
Mest skyet
Mest skyet
 Vind fra S
Vind: S 22 km/h
Temperatur: 5°C
Kuldeindeks: 1°C
Dugpunkt: 4°C
Fugtighed: 93%
Barometer: 975 hPa
Skydække: Mest skyet
Sigtbarhed: 6 km
Skyhøjde: Delvist skyet 213 m
Mest skyet 305 m
2020/02/25 11:50 EKKA 251150Z 19012KT 6000 SCT007 BKN010 05/04 Q0975 TEMPO 23015G28KT 2500 RADZ BKN008
 
EKOD - Odense/Beldringe, Denmark
Afstand fra stationen: SSV 116km
Opdateret: 25/02/2020 12:50
Let regn, Mest skyet
Let regn, Mest skyet
 Vind fra SSV
Vind: SSV 52 km/h, Vindstød: 80 km/h
Temperatur: 5°C
Kuldeindeks: -2°C
Dugpunkt: 4°C
Fugtighed: 93%
Barometer: 982 hPa
Oversigt: Let regn
Skydække: Mest skyet
Sigtbarhed: 6 km
Skyhøjde: Få skyer 671 m
Mest skyet 1128 m
2020/02/25 11:50 EKOD 251150Z 21028G43KT 6000 -RA FEW022 BKN037 05/04 Q0982
EKBI - Billund Airport, Denmark
Afstand fra stationen: SV 134km
Opdateret: 25/02/2020 12:50
Let regn, Regnbyger, Sne, Delvist skyet
Let regn, Regnbyger, Sne, Delvist skyet
 Vind fra SV
Vind: SV 44 km/h, Vindstød: 74 km/h
Temperatur: 3°C
Kuldeindeks: -4°C
Dugpunkt: 2°C
Fugtighed: 93%
Barometer: 977 hPa
Oversigt: Let regn, Regnbyger, Sne
Skydække: Delvist skyet
Sigtbarhed: 6 km
Skyhøjde: Overskyet 335 m
Delvist skyet 671 m
2020/02/25 11:50 EKBI 251150Z 23024G40KT 6000 -SHRASN OVC011 SCT022CB 03/02 Q0977
EKCH - Copenhagen/Kastr, Denmark
Afstand fra stationen: SØ 148km
Opdateret: 25/02/2020 12:50
Mest skyet
Mest skyet
 Vind fra SV
Vind: SV 30 km/h
Temperatur: 7°C
Kuldeindeks: 3°C
Dugpunkt: 2°C
Fugtighed: 71%
Barometer: 986 hPa
Skydække: Mest skyet
Sigtbarhed: 10 km
Skyhøjde: Mest skyet 853 m
2020/02/25 11:50 EKCH 251150Z AUTO 22016KT 190V250 9999 BKN028/// 07/02 Q0986 TEMPO 23018G28KT